sensor_id;sensor_type;location;lat;lon;timestamp;temperature;humidity
11559;DHT22;5835;42.930;25.178;2024-03-25T00:00:48;8.60;99.90
11559;DHT22;5835;42.930;25.178;2024-03-25T00:03:16;8.40;88.80
11559;DHT22;5835;42.930;25.178;2024-03-25T00:05:43;8.20;99.90
11559;DHT22;5835;42.930;25.178;2024-03-25T00:08:11;7.90;99.90
11559;DHT22;5835;42.930;25.178;2024-03-25T00:10:37;7.80;1.00
11559;DHT22;5835;42.930;25.178;2024-03-25T00:13:04;7.90;99.90
11559;DHT22;5835;42.930;25.178;2024-03-25T00:15:31;7.80;1.00
11559;DHT22;5835;42.930;25.178;2024-03-25T00:18:00;8.00;99.90
11559;DHT22;5835;42.930;25.178;2024-03-25T00:20:28;7.80;1.00
11559;DHT22;5835;42.930;25.178;2024-03-25T00:22:55;7.70;1.00
11559;DHT22;5835;42.930;25.178;2024-03-25T00:25:22;7.60;37.30
11559;DHT22;5835;42.930;25.178;2024-03-25T00:27:49;7.50;94.30
11559;DHT22;5835;42.930;25.178;2024-03-25T00:30:15;7.50;99.90
11559;DHT22;5835;42.930;25.178;2024-03-25T00:32:43;7.50;99.90
11559;DHT22;5835;42.930;25.178;2024-03-25T00:35:09;7.50;99.90
11559;DHT22;5835;42.930;25.178;2024-03-25T00:37:38;7.50;99.90
11559;DHT22;5835;42.930;25.178;2024-03-25T00:40:06;7.40;99.90
11559;DHT22;5835;42.930;25.178;2024-03-25T00:42:34;7.50;99.90
11559;DHT22;5835;42.930;25.178;2024-03-25T00:45:00;7.40;99.90
11559;DHT22;5835;42.930;25.178;2024-03-25T00:47:28;7.50;99.90
11559;DHT22;5835;42.930;25.178;2024-03-25T00:49:54;7.50;99.90
11559;DHT22;5835;42.930;25.178;2024-03-25T00:52:22;7.50;94.40
11559;DHT22;5835;42.930;25.178;2024-03-25T00:54:50;7.50;99.90
11559;DHT22;5835;42.930;25.178;2024-03-25T00:57:17;7.40;99.90
11559;DHT22;5835;42.930;25.178;2024-03-25T00:59:45;7.40;99.90
11559;DHT22;5835;42.930;25.178;2024-03-25T01:02:12;7.40;99.90
11559;DHT22;5835;42.930;25.178;2024-03-25T01:04:39;7.40;99.90
11559;DHT22;5835;42.930;25.178;2024-03-25T01:07:06;7.30;99.90
11559;DHT22;5835;42.930;25.178;2024-03-25T01:09:33;7.30;99.90
11559;DHT22;5835;42.930;25.178;2024-03-25T01:12:01;7.20;99.90
11559;DHT22;5835;42.930;25.178;2024-03-25T01:14:28;7.20;99.90
11559;DHT22;5835;42.930;25.178;2024-03-25T01:17:14;7.20;99.90
11559;DHT22;5835;42.930;25.178;2024-03-25T01:19:40;7.10;99.90
11559;DHT22;5835;42.930;25.178;2024-03-25T01:22:07;7.00;99.90
11559;DHT22;5835;42.930;25.178;2024-03-25T01:24:34;7.00;99.90
11559;DHT22;5835;42.930;25.178;2024-03-25T01:27:03;6.80;99.90
11559;DHT22;5835;42.930;25.178;2024-03-25T01:29:29;6.80;99.90
11559;DHT22;5835;42.930;25.178;2024-03-25T01:31:57;6.70;99.90
11559;DHT22;5835;42.930;25.178;2024-03-25T01:34:24;6.60;99.90
11559;DHT22;5835;42.930;25.178;2024-03-25T01:36:52;6.60;99.90
11559;DHT22;5835;42.930;25.178;2024-03-25T01:39:18;6.50;99.90
11559;DHT22;5835;42.930;25.178;2024-03-25T01:41:46;6.30;99.90
11559;DHT22;5835;42.930;25.178;2024-03-25T01:44:13;6.20;99.90
11559;DHT22;5835;42.930;25.178;2024-03-25T01:46:41;5.80;99.90
11559;DHT22;5835;42.930;25.178;2024-03-25T01:49:09;5.70;99.90
11559;DHT22;5835;42.930;25.178;2024-03-25T01:51:37;5.20;99.90
11559;DHT22;5835;42.930;25.178;2024-03-25T01:54:03;5.00;99.90
11559;DHT22;5835;42.930;25.178;2024-03-25T01:56:33;4.80;99.90
11559;DHT22;5835;42.930;25.178;2024-03-25T01:58:59;4.70;99.90
11559;DHT22;5835;42.930;25.178;2024-03-25T02:01:29;4.60;99.90
11559;DHT22;5835;42.930;25.178;2024-03-25T02:03:56;4.60;99.90
11559;DHT22;5835;42.930;25.178;2024-03-25T02:06:26;4.60;99.90
11559;DHT22;5835;42.930;25.178;2024-03-25T02:08:56;4.50;99.90
11559;DHT22;5835;42.930;25.178;2024-03-25T02:11:24;4.60;99.90
11559;DHT22;5835;42.930;25.178;2024-03-25T02:13:51;4.60;99.90
11559;DHT22;5835;42.930;25.178;2024-03-25T02:16:19;4.60;99.90
11559;DHT22;5835;42.930;25.178;2024-03-25T02:18:46;4.50;99.90
11559;DHT22;5835;42.930;25.178;2024-03-25T02:21:14;4.60;99.90
11559;DHT22;5835;42.930;25.178;2024-03-25T02:23:42;4.50;99.90
11559;DHT22;5835;42.930;25.178;2024-03-25T02:26:13;4.50;99.90
11559;DHT22;5835;42.930;25.178;2024-03-25T02:28:39;4.50;99.90
11559;DHT22;5835;42.930;25.178;2024-03-25T02:31:06;4.40;99.90
11559;DHT22;5835;42.930;25.178;2024-03-25T02:33:32;4.40;99.90
11559;DHT22;5835;42.930;25.178;2024-03-25T02:36:00;4.30;99.90
11559;DHT22;5835;42.930;25.178;2024-03-25T02:38:27;4.30;99.90
11559;DHT22;5835;42.930;25.178;2024-03-25T02:40:54;4.30;99.90
11559;DHT22;5835;42.930;25.178;2024-03-25T02:43:22;4.20;99.90
11559;DHT22;5835;42.930;25.178;2024-03-25T02:45:50;4.30;99.90
11559;DHT22;5835;42.930;25.178;2024-03-25T02:48:16;4.20;99.90
11559;DHT22;5835;42.930;25.178;2024-03-25T02:50:43;4.20;99.90
11559;DHT22;5835;42.930;25.178;2024-03-25T02:53:10;4.10;99.90
11559;DHT22;5835;42.930;25.178;2024-03-25T02:55:37;4.00;99.90
11559;DHT22;5835;42.930;25.178;2024-03-25T02:58:03;3.90;99.90
11559;DHT22;5835;42.930;25.178;2024-03-25T03:00:32;3.90;99.90
11559;DHT22;5835;42.930;25.178;2024-03-25T03:03:17;3.60;99.90
11559;DHT22;5835;42.930;25.178;2024-03-25T03:05:44;3.60;99.90
11559;DHT22;5835;42.930;25.178;2024-03-25T03:08:11;3.50;99.90
11559;DHT22;5835;42.930;25.178;2024-03-25T03:10:38;3.40;99.90
11559;DHT22;5835;42.930;25.178;2024-03-25T03:13:04;3.30;99.90
11559;DHT22;5835;42.930;25.178;2024-03-25T03:15:33;3.30;99.90
11559;DHT22;5835;42.930;25.178;2024-03-25T03:17:59;3.30;99.90
11559;DHT22;5835;42.930;25.178;2024-03-25T03:20:27;3.20;99.90
11559;DHT22;5835;42.930;25.178;2024-03-25T03:22:53;3.20;99.90
11559;DHT22;5835;42.930;25.178;2024-03-25T03:25:21;3.30;99.90
11559;DHT22;5835;42.930;25.178;2024-03-25T03:27:47;3.30;99.90
11559;DHT22;5835;42.930;25.178;2024-03-25T03:30:15;3.30;99.90
11559;DHT22;5835;42.930;25.178;2024-03-25T03:32:43;3.20;99.90
11559;DHT22;5835;42.930;25.178;2024-03-25T03:35:10;3.00;99.90
11559;DHT22;5835;42.930;25.178;2024-03-25T03:37:38;3.00;99.90
11559;DHT22;5835;42.930;25.178;2024-03-25T03:40:05;3.00;99.90
11559;DHT22;5835;42.930;25.178;2024-03-25T03:42:33;2.90;99.90
11559;DHT22;5835;42.930;25.178;2024-03-25T03:44:59;3.00;99.90
11559;DHT22;5835;42.930;25.178;2024-03-25T03:47:27;2.90;99.90
11559;DHT22;5835;42.930;25.178;2024-03-25T03:49:55;3.00;99.90
11559;DHT22;5835;42.930;25.178;2024-03-25T03:52:23;3.00;99.90
11559;DHT22;5835;42.930;25.178;2024-03-25T03:54:49;3.10;99.90
11559;DHT22;5835;42.930;25.178;2024-03-25T03:57:16;3.00;99.90
11559;DHT22;5835;42.930;25.178;2024-03-25T03:59:43;3.10;99.90
11559;DHT22;5835;42.930;25.178;2024-03-25T04:02:10;3.00;99.90
11559;DHT22;5835;42.930;25.178;2024-03-25T04:04:36;3.10;99.90
11559;DHT22;5835;42.930;25.178;2024-03-25T04:07:05;3.00;99.90
11559;DHT22;5835;42.930;25.178;2024-03-25T04:09:31;3.10;99.90
11559;DHT22;5835;42.930;25.178;2024-03-25T04:11:59;3.10;99.90
11559;DHT22;5835;42.930;25.178;2024-03-25T04:14:27;3.10;99.90
11559;DHT22;5835;42.930;25.178;2024-03-25T04:16:54;3.10;99.90
11559;DHT22;5835;42.930;25.178;2024-03-25T04:19:23;3.20;99.90
11559;DHT22;5835;42.930;25.178;2024-03-25T04:21:51;3.20;99.90
11559;DHT22;5835;42.930;25.178;2024-03-25T04:24:20;3.30;99.90
11559;DHT22;5835;42.930;25.178;2024-03-25T04:26:47;3.40;99.90
11559;DHT22;5835;42.930;25.178;2024-03-25T04:29:15;3.50;99.90
11559;DHT22;5835;42.930;25.178;2024-03-25T04:31:42;3.50;99.90
11559;DHT22;5835;42.930;25.178;2024-03-25T04:34:09;3.60;99.90
11559;DHT22;5835;42.930;25.178;2024-03-25T04:36:36;3.50;99.90
11559;DHT22;5835;42.930;25.178;2024-03-25T04:39:03;3.60;99.90
11559;DHT22;5835;42.930;25.178;2024-03-25T04:41:30;3.80;99.90
11559;DHT22;5835;42.930;25.178;2024-03-25T04:43:57;3.90;99.90
11559;DHT22;5835;42.930;25.178;2024-03-25T04:46:23;3.90;99.90
11559;DHT22;5835;42.930;25.178;2024-03-25T04:48:49;3.90;99.90
11559;DHT22;5835;42.930;25.178;2024-03-25T04:51:16;3.90;99.90
11559;DHT22;5835;42.930;25.178;2024-03-25T04:53:42;3.90;99.90
11559;DHT22;5835;42.930;25.178;2024-03-25T04:56:08;3.90;99.90
11559;DHT22;5835;42.930;25.178;2024-03-25T04:58:36;3.80;99.90
11559;DHT22;5835;42.930;25.178;2024-03-25T05:01:02;3.80;99.90
11559;DHT22;5835;42.930;25.178;2024-03-25T05:03:28;3.90;99.90
11559;DHT22;5835;42.930;25.178;2024-03-25T05:05:55;3.90;99.90
11559;DHT22;5835;42.930;25.178;2024-03-25T05:08:21;3.90;99.90
11559;DHT22;5835;42.930;25.178;2024-03-25T05:10:47;3.90;99.90
11559;DHT22;5835;42.930;25.178;2024-03-25T05:13:13;3.90;99.90
11559;DHT22;5835;42.930;25.178;2024-03-25T05:15:48;4.00;99.90
11559;DHT22;5835;42.930;25.178;2024-03-25T05:18:15;4.10;99.90
11559;DHT22;5835;42.930;25.178;2024-03-25T05:20:41;4.10;99.90
11559;DHT22;5835;42.930;25.178;2024-03-25T05:23:07;4.20;99.90
11559;DHT22;5835;42.930;25.178;2024-03-25T05:25:35;4.20;99.90
11559;DHT22;5835;42.930;25.178;2024-03-25T05:28:01;4.20;99.90
11559;DHT22;5835;42.930;25.178;2024-03-25T05:30:27;4.30;99.90
11559;DHT22;5835;42.930;25.178;2024-03-25T05:32:55;4.40;99.90
11559;DHT22;5835;42.930;25.178;2024-03-25T05:35:22;4.50;99.90
11559;DHT22;5835;42.930;25.178;2024-03-25T05:37:48;4.50;99.90
11559;DHT22;5835;42.930;25.178;2024-03-25T05:40:14;4.50;99.90
11559;DHT22;5835;42.930;25.178;2024-03-25T05:42:44;4.50;99.90
11559;DHT22;5835;42.930;25.178;2024-03-25T05:45:10;4.60;99.90
11559;DHT22;5835;42.930;25.178;2024-03-25T05:47:36;4.60;99.90
11559;DHT22;5835;42.930;25.178;2024-03-25T05:50:05;4.60;99.90
11559;DHT22;5835;42.930;25.178;2024-03-25T05:52:31;4.60;99.90
11559;DHT22;5835;42.930;25.178;2024-03-25T05:54:58;4.60;99.90
11559;DHT22;5835;42.930;25.178;2024-03-25T05:57:24;4.70;99.90
11559;DHT22;5835;42.930;25.178;2024-03-25T05:59:50;4.70;99.90
11559;DHT22;5835;42.930;25.178;2024-03-25T06:02:17;4.80;99.90
11559;DHT22;5835;42.930;25.178;2024-03-25T06:04:43;4.80;99.90
11559;DHT22;5835;42.930;25.178;2024-03-25T06:07:11;4.80;99.90
11559;DHT22;5835;42.930;25.178;2024-03-25T06:09:37;4.80;99.90
11559;DHT22;5835;42.930;25.178;2024-03-25T06:12:04;4.80;99.90
11559;DHT22;5835;42.930;25.178;2024-03-25T06:14:30;4.80;99.90
11559;DHT22;5835;42.930;25.178;2024-03-25T06:16:56;4.90;99.90
11559;DHT22;5835;42.930;25.178;2024-03-25T06:19:23;4.90;99.90
11559;DHT22;5835;42.930;25.178;2024-03-25T06:21:49;4.90;99.90
11559;DHT22;5835;42.930;25.178;2024-03-25T06:24:17;4.80;99.90
11559;DHT22;5835;42.930;25.178;2024-03-25T06:26:43;4.80;99.90
11559;DHT22;5835;42.930;25.178;2024-03-25T06:29:09;4.90;99.90
11559;DHT22;5835;42.930;25.178;2024-03-25T06:31:36;4.90;99.90
11559;DHT22;5835;42.930;25.178;2024-03-25T06:34:35;4.90;99.90
11559;DHT22;5835;42.930;25.178;2024-03-25T06:37:01;5.00;99.90
11559;DHT22;5835;42.930;25.178;2024-03-25T06:39:29;4.90;99.90
11559;DHT22;5835;42.930;25.178;2024-03-25T06:41:55;5.00;99.90
11559;DHT22;5835;42.930;25.178;2024-03-25T06:44:22;4.90;99.90
11559;DHT22;5835;42.930;25.178;2024-03-25T06:46:48;5.00;99.90
11559;DHT22;5835;42.930;25.178;2024-03-25T06:49:14;4.90;99.90
11559;DHT22;5835;42.930;25.178;2024-03-25T06:51:40;4.90;99.90
11559;DHT22;5835;42.930;25.178;2024-03-25T06:54:07;4.90;99.90
11559;DHT22;5835;42.930;25.178;2024-03-25T06:56:35;4.90;99.90
11559;DHT22;5835;42.930;25.178;2024-03-25T06:59:01;4.90;99.90
11559;DHT22;5835;42.930;25.178;2024-03-25T07:01:28;4.90;99.90
11559;DHT22;5835;42.930;25.178;2024-03-25T07:03:54;4.80;99.90
11559;DHT22;5835;42.930;25.178;2024-03-25T07:06:20;4.80;99.90
11559;DHT22;5835;42.930;25.178;2024-03-25T07:08:47;4.80;99.90
11559;DHT22;5835;42.930;25.178;2024-03-25T07:11:13;4.70;99.90
11559;DHT22;5835;42.930;25.178;2024-03-25T07:13:41;4.70;99.90
11559;DHT22;5835;42.930;25.178;2024-03-25T07:16:07;4.70;99.90
11559;DHT22;5835;42.930;25.178;2024-03-25T07:18:34;4.70;99.90
11559;DHT22;5835;42.930;25.178;2024-03-25T07:21:00;4.70;99.90
11559;DHT22;5835;42.930;25.178;2024-03-25T07:23:26;4.70;99.90
11559;DHT22;5835;42.930;25.178;2024-03-25T07:25:52;4.70;90.00
11559;DHT22;5835;42.930;25.178;2024-03-25T07:28:19;4.70;99.90
11559;DHT22;5835;42.930;25.178;2024-03-25T07:30:46;4.70;99.90
11559;DHT22;5835;42.930;25.178;2024-03-25T07:33:15;4.70;99.90
11559;DHT22;5835;42.930;25.178;2024-03-25T07:35:41;4.70;99.90
11559;DHT22;5835;42.930;25.178;2024-03-25T07:38:10;4.70;99.90
11559;DHT22;5835;42.930;25.178;2024-03-25T07:40:37;4.70;99.90
11559;DHT22;5835;42.930;25.178;2024-03-25T07:43:04;4.70;99.90
11559;DHT22;5835;42.930;25.178;2024-03-25T07:45:30;4.70;99.90
11559;DHT22;5835;42.930;25.178;2024-03-25T07:47:58;4.70;99.90
11559;DHT22;5835;42.930;25.178;2024-03-25T07:50:24;4.70;99.90
11559;DHT22;5835;42.930;25.178;2024-03-25T07:52:51;4.80;99.90
11559;DHT22;5835;42.930;25.178;2024-03-25T07:55:17;4.80;99.90
11559;DHT22;5835;42.930;25.178;2024-03-25T07:57:43;4.80;99.90
11559;DHT22;5835;42.930;25.178;2024-03-25T08:00:10;4.80;99.90
11559;DHT22;5835;42.930;25.178;2024-03-25T08:02:37;4.80;99.90
11559;DHT22;5835;42.930;25.178;2024-03-25T08:05:05;4.80;99.90
11559;DHT22;5835;42.930;25.178;2024-03-25T08:07:32;4.80;99.90
11559;DHT22;5835;42.930;25.178;2024-03-25T08:09:58;4.90;99.90
11559;DHT22;5835;42.930;25.178;2024-03-25T08:12:24;5.00;99.90
11559;DHT22;5835;42.930;25.178;2024-03-25T08:14:51;5.00;32.60
11559;DHT22;5835;42.930;25.178;2024-03-25T08:17:17;5.10;37.30
11559;DHT22;5835;42.930;25.178;2024-03-25T08:19:43;5.10;72.40
11559;DHT22;5835;42.930;25.178;2024-03-25T08:22:11;5.10;40.80
11559;DHT22;5835;42.930;25.178;2024-03-25T08:24:37;5.00;2.10
11559;DHT22;5835;42.930;25.178;2024-03-25T08:27:04;5.00;1.00
11559;DHT22;5835;42.930;25.178;2024-03-25T08:29:30;5.00;1.00
11559;DHT22;5835;42.930;25.178;2024-03-25T08:31:57;5.00;1.00
11559;DHT22;5835;42.930;25.178;2024-03-25T08:34:23;5.00;1.00
11559;DHT22;5835;42.930;25.178;2024-03-25T08:36:49;5.10;1.00
11559;DHT22;5835;42.930;25.178;2024-03-25T08:39:17;5.10;1.00
11559;DHT22;5835;42.930;25.178;2024-03-25T08:41:44;5.10;1.00
11559;DHT22;5835;42.930;25.178;2024-03-25T08:44:10;5.10;1.00
11559;DHT22;5835;42.930;25.178;2024-03-25T08:46:36;5.20;1.00
11559;DHT22;5835;42.930;25.178;2024-03-25T08:49:03;5.20;1.00
11559;DHT22;5835;42.930;25.178;2024-03-25T08:51:29;5.40;1.00
11559;DHT22;5835;42.930;25.178;2024-03-25T08:53:55;5.50;99.90
11559;DHT22;5835;42.930;25.178;2024-03-25T08:56:23;5.70;99.90
11559;DHT22;5835;42.930;25.178;2024-03-25T08:58:49;5.70;1.00
11559;DHT22;5835;42.930;25.178;2024-03-25T09:01:16;5.80;1.00
11559;DHT22;5835;42.930;25.178;2024-03-25T09:03:42;5.80;99.90
11559;DHT22;5835;42.930;25.178;2024-03-25T09:06:08;5.80;99.90
11559;DHT22;5835;42.930;25.178;2024-03-25T09:08:35;5.80;1.00
11559;DHT22;5835;42.930;25.178;2024-03-25T09:11:01;5.90;1.60
11559;DHT22;5835;42.930;25.178;2024-03-25T09:13:32;5.90;1.00
11559;DHT22;5835;42.930;25.178;2024-03-25T09:15:58;6.00;99.90
11559;DHT22;5835;42.930;25.178;2024-03-25T09:18:25;5.90;99.90
11559;DHT22;5835;42.930;25.178;2024-03-25T09:20:51;5.90;99.90
11559;DHT22;5835;42.930;25.178;2024-03-25T09:23:17;5.90;1.00
11559;DHT22;5835;42.930;25.178;2024-03-25T09:25:53;5.70;99.90
11559;DHT22;5835;42.930;25.178;2024-03-25T09:28:19;5.60;99.90
11559;DHT22;5835;42.930;25.178;2024-03-25T09:30:48;5.70;99.90
11559;DHT22;5835;42.930;25.178;2024-03-25T09:33:14;5.60;1.00
11559;DHT22;5835;42.930;25.178;2024-03-25T09:35:41;5.60;99.90
11559;DHT22;5835;42.930;25.178;2024-03-25T09:38:07;5.70;1.00
11559;DHT22;5835;42.930;25.178;2024-03-25T09:40:35;5.60;18.10
11559;DHT22;5835;42.930;25.178;2024-03-25T09:43:02;5.50;1.00
11559;DHT22;5835;42.930;25.178;2024-03-25T09:45:30;5.60;99.60
11559;DHT22;5835;42.930;25.178;2024-03-25T09:47:59;5.60;49.30
11559;DHT22;5835;42.930;25.178;2024-03-25T09:50:26;5.60;1.00
11559;DHT22;5835;42.930;25.178;2024-03-25T09:52:52;5.80;1.00
11559;DHT22;5835;42.930;25.178;2024-03-25T09:55:19;5.80;1.00
11559;DHT22;5835;42.930;25.178;2024-03-25T09:57:45;5.90;1.00
11559;DHT22;5835;42.930;25.178;2024-03-25T10:00:13;6.00;1.00
11559;DHT22;5835;42.930;25.178;2024-03-25T10:02:41;6.30;99.90
11559;DHT22;5835;42.930;25.178;2024-03-25T10:05:09;6.20;61.50
11559;DHT22;5835;42.930;25.178;2024-03-25T10:07:35;6.30;1.00
11559;DHT22;5835;42.930;25.178;2024-03-25T10:10:04;6.50;99.90
11559;DHT22;5835;42.930;25.178;2024-03-25T10:12:31;6.40;66.50
11559;DHT22;5835;42.930;25.178;2024-03-25T10:14:57;6.30;1.00
11559;DHT22;5835;42.930;25.178;2024-03-25T10:17:23;6.30;1.00
11559;DHT22;5835;42.930;25.178;2024-03-25T10:19:50;6.40;1.00
11559;DHT22;5835;42.930;25.178;2024-03-25T10:22:17;6.30;1.00
11559;DHT22;5835;42.930;25.178;2024-03-25T10:24:45;6.50;99.90
11559;DHT22;5835;42.930;25.178;2024-03-25T10:27:17;6.40;1.00
11559;DHT22;5835;42.930;25.178;2024-03-25T10:29:44;6.70;99.90
11559;DHT22;5835;42.930;25.178;2024-03-25T10:32:10;6.80;1.00
11559;DHT22;5835;42.930;25.178;2024-03-25T10:34:37;6.80;1.00
11559;DHT22;5835;42.930;25.178;2024-03-25T10:37:04;6.90;99.90
11559;DHT22;5835;42.930;25.178;2024-03-25T10:39:32;7.00;99.90
11559;DHT22;5835;42.930;25.178;2024-03-25T10:42:01;7.20;99.90
11559;DHT22;5835;42.930;25.178;2024-03-25T10:44:29;7.10;99.90
11559;DHT22;5835;42.930;25.178;2024-03-25T10:46:58;7.20;99.90
11559;DHT22;5835;42.930;25.178;2024-03-25T10:49:33;7.20;99.90
11559;DHT22;5835;42.930;25.178;2024-03-25T10:52:00;7.10;99.90
11559;DHT22;5835;42.930;25.178;2024-03-25T10:54:30;6.80;35.60
11559;DHT22;5835;42.930;25.178;2024-03-25T10:56:59;6.70;26.70
11559;DHT22;5835;42.930;25.178;2024-03-25T10:59:27;6.70;99.90
11559;DHT22;5835;42.930;25.178;2024-03-25T11:01:53;6.40;99.90
11559;DHT22;5835;42.930;25.178;2024-03-25T11:04:20;6.30;99.90
11559;DHT22;5835;42.930;25.178;2024-03-25T11:06:47;6.40;1.00
11559;DHT22;5835;42.930;25.178;2024-03-25T11:09:22;6.90;1.00
11559;DHT22;5835;42.930;25.178;2024-03-25T11:11:50;7.10;99.90
11559;DHT22;5835;42.930;25.178;2024-03-25T11:14:18;7.50;99.90
11559;DHT22;5835;42.930;25.178;2024-03-25T11:16:51;7.40;99.90
11559;DHT22;5835;42.930;25.178;2024-03-25T11:19:18;8.30;1.00
11559;DHT22;5835;42.930;25.178;2024-03-25T11:21:44;8.60;29.30
11559;DHT22;5835;42.930;25.178;2024-03-25T11:24:11;8.60;99.90
11559;DHT22;5835;42.930;25.178;2024-03-25T11:26:41;8.20;1.00
11559;DHT22;5835;42.930;25.178;2024-03-25T11:29:08;8.30;1.00
11559;DHT22;5835;42.930;25.178;2024-03-25T11:31:38;7.70;99.90
11559;DHT22;5835;42.930;25.178;2024-03-25T11:34:05;7.50;99.90
11559;DHT22;5835;42.930;25.178;2024-03-25T11:36:32;7.50;99.90
11559;DHT22;5835;42.930;25.178;2024-03-25T11:38:59;7.50;99.90
11559;DHT22;5835;42.930;25.178;2024-03-25T11:41:26;7.50;99.90
11559;DHT22;5835;42.930;25.178;2024-03-25T11:43:52;8.10;99.90
11559;DHT22;5835;42.930;25.178;2024-03-25T11:46:19;7.90;99.90
11559;DHT22;5835;42.930;25.178;2024-03-25T11:48:47;7.80;99.90
11559;DHT22;5835;42.930;25.178;2024-03-25T11:51:16;7.80;99.90
11559;DHT22;5835;42.930;25.178;2024-03-25T11:53:43;7.60;99.90
11559;DHT22;5835;42.930;25.178;2024-03-25T11:56:10;7.50;41.60
11559;DHT22;5835;42.930;25.178;2024-03-25T11:58:36;7.20;64.70
11559;DHT22;5835;42.930;25.178;2024-03-25T12:01:03;7.00;48.70
11559;DHT22;5835;42.930;25.178;2024-03-25T12:03:29;6.80;99.90
11559;DHT22;5835;42.930;25.178;2024-03-25T12:05:57;6.20;28.60
11559;DHT22;5835;42.930;25.178;2024-03-25T12:08:23;5.90;88.10
11559;DHT22;5835;42.930;25.178;2024-03-25T12:10:50;5.90;99.90
11559;DHT22;5835;42.930;25.178;2024-03-25T12:13:35;6.20;36.00
11559;DHT22;5835;42.930;25.178;2024-03-25T12:16:01;6.30;99.90
11559;DHT22;5835;42.930;25.178;2024-03-25T12:18:27;6.30;99.90
11559;DHT22;5835;42.930;25.178;2024-03-25T12:20:58;6.30;99.90
11559;DHT22;5835;42.930;25.178;2024-03-25T12:23:29;6.40;1.00
11559;DHT22;5835;42.930;25.178;2024-03-25T12:25:55;6.60;99.90
11559;DHT22;5835;42.930;25.178;2024-03-25T12:28:22;6.70;99.90
11559;DHT22;5835;42.930;25.178;2024-03-25T12:30:51;6.90;99.90
11559;DHT22;5835;42.930;25.178;2024-03-25T12:33:17;6.90;99.90
11559;DHT22;5835;42.930;25.178;2024-03-25T12:35:46;7.30;1.00
11559;DHT22;5835;42.930;25.178;2024-03-25T12:38:24;7.80;99.90
11559;DHT22;5835;42.930;25.178;2024-03-25T12:40:50;8.10;1.00
11559;DHT22;5835;42.930;25.178;2024-03-25T12:43:16;8.40;99.90
11559;DHT22;5835;42.930;25.178;2024-03-25T12:45:43;8.70;99.90
11559;DHT22;5835;42.930;25.178;2024-03-25T12:48:09;8.70;99.90
11559;DHT22;5835;42.930;25.178;2024-03-25T12:50:36;8.70;1.00
11559;DHT22;5835;42.930;25.178;2024-03-25T12:53:02;8.80;99.90
11559;DHT22;5835;42.930;25.178;2024-03-25T12:55:30;8.80;99.90
11559;DHT22;5835;42.930;25.178;2024-03-25T12:57:56;8.80;88.80
11559;DHT22;5835;42.930;25.178;2024-03-25T13:00:23;8.70;1.00
11559;DHT22;5835;42.930;25.178;2024-03-25T13:02:49;8.70;1.00
11559;DHT22;5835;42.930;25.178;2024-03-25T13:05:16;8.70;1.00
11559;DHT22;5835;42.930;25.178;2024-03-25T13:07:42;8.30;1.00
11559;DHT22;5835;42.930;25.178;2024-03-25T13:10:09;8.00;1.00
11559;DHT22;5835;42.930;25.178;2024-03-25T13:12:36;7.90;1.00
11559;DHT22;5835;42.930;25.178;2024-03-25T13:15:03;7.90;1.00
11559;DHT22;5835;42.930;25.178;2024-03-25T13:17:29;7.70;1.00
11559;DHT22;5835;42.930;25.178;2024-03-25T13:19:56;7.60;1.00
11559;DHT22;5835;42.930;25.178;2024-03-25T13:22:22;7.60;99.90
11559;DHT22;5835;42.930;25.178;2024-03-25T13:24:48;7.40;99.90
11559;DHT22;5835;42.930;25.178;2024-03-25T13:27:15;7.60;99.90
11559;DHT22;5835;42.930;25.178;2024-03-25T13:29:42;7.90;1.00
11559;DHT22;5835;42.930;25.178;2024-03-25T13:32:09;7.90;99.90
11559;DHT22;5835;42.930;25.178;2024-03-25T13:34:35;7.70;99.90
11559;DHT22;5835;42.930;25.178;2024-03-25T13:37:01;7.50;99.90
11559;DHT22;5835;42.930;25.178;2024-03-25T13:39:27;7.60;99.90
11559;DHT22;5835;42.930;25.178;2024-03-25T13:41:54;7.60;99.90
11559;DHT22;5835;42.930;25.178;2024-03-25T13:44:20;7.50;99.90
11559;DHT22;5835;42.930;25.178;2024-03-25T13:46:48;7.70;99.90
11559;DHT22;5835;42.930;25.178;2024-03-25T13:49:14;8.00;99.90
11559;DHT22;5835;42.930;25.178;2024-03-25T13:51:40;8.10;99.90
11559;DHT22;5835;42.930;25.178;2024-03-25T13:54:07;8.00;99.90
11559;DHT22;5835;42.930;25.178;2024-03-25T13:56:33;8.20;99.90
11559;DHT22;5835;42.930;25.178;2024-03-25T13:58:59;8.10;99.90
11559;DHT22;5835;42.930;25.178;2024-03-25T14:01:25;8.20;99.90
11559;DHT22;5835;42.930;25.178;2024-03-25T14:03:53;8.40;99.90
11559;DHT22;5835;42.930;25.178;2024-03-25T14:06:19;8.80;99.90
11559;DHT22;5835;42.930;25.178;2024-03-25T14:08:46;9.30;99.90
11559;DHT22;5835;42.930;25.178;2024-03-25T14:11:12;9.40;99.90
11559;DHT22;5835;42.930;25.178;2024-03-25T14:13:38;9.90;99.90
11559;DHT22;5835;42.930;25.178;2024-03-25T14:16:05;9.90;99.90
11559;DHT22;5835;42.930;25.178;2024-03-25T14:18:31;10.40;90.50
11559;DHT22;5835;42.930;25.178;2024-03-25T14:20:59;10.30;26.90
11559;DHT22;5835;42.930;25.178;2024-03-25T14:23:25;10.20;1.00
11559;DHT22;5835;42.930;25.178;2024-03-25T14:25:51;10.20;1.00
11559;DHT22;5835;42.930;25.178;2024-03-25T14:28:18;10.40;1.00
11559;DHT22;5835;42.930;25.178;2024-03-25T14:30:44;10.60;1.00
11559;DHT22;5835;42.930;25.178;2024-03-25T14:33:10;10.60;1.00
11559;DHT22;5835;42.930;25.178;2024-03-25T14:35:36;10.40;1.00
11559;DHT22;5835;42.930;25.178;2024-03-25T14:38:04;10.50;1.00
11559;DHT22;5835;42.930;25.178;2024-03-25T14:40:30;10.70;1.00
11559;DHT22;5835;42.930;25.178;2024-03-25T14:42:57;10.80;1.00
11559;DHT22;5835;42.930;25.178;2024-03-25T14:45:23;10.80;1.00
11559;DHT22;5835;42.930;25.178;2024-03-25T14:47:49;10.70;1.00
11559;DHT22;5835;42.930;25.178;2024-03-25T14:50:15;10.90;1.00
11559;DHT22;5835;42.930;25.178;2024-03-25T14:52:42;11.00;1.00
11559;DHT22;5835;42.930;25.178;2024-03-25T14:55:10;11.10;1.00
11559;DHT22;5835;42.930;25.178;2024-03-25T14:57:36;11.20;1.00
11559;DHT22;5835;42.930;25.178;2024-03-25T15:00:03;11.20;1.00
11559;DHT22;5835;42.930;25.178;2024-03-25T15:02:29;11.30;1.00
11559;DHT22;5835;42.930;25.178;2024-03-25T15:04:55;11.30;1.00
11559;DHT22;5835;42.930;25.178;2024-03-25T15:07:22;11.20;1.00
11559;DHT22;5835;42.930;25.178;2024-03-25T15:09:48;11.40;1.00
11559;DHT22;5835;42.930;25.178;2024-03-25T15:12:16;11.40;1.00
11559;DHT22;5835;42.930;25.178;2024-03-25T15:14:42;11.10;1.00
11559;DHT22;5835;42.930;25.178;2024-03-25T15:17:08;11.10;1.00
11559;DHT22;5835;42.930;25.178;2024-03-25T15:19:34;11.10;1.00
11559;DHT22;5835;42.930;25.178;2024-03-25T15:22:01;11.20;1.00
11559;DHT22;5835;42.930;25.178;2024-03-25T15:24:27;10.90;1.00
11559;DHT22;5835;42.930;25.178;2024-03-25T15:26:53;10.80;1.00
11559;DHT22;5835;42.930;25.178;2024-03-25T15:29:21;10.90;1.00
11559;DHT22;5835;42.930;25.178;2024-03-25T15:31:47;11.00;1.00
11559;DHT22;5835;42.930;25.178;2024-03-25T15:34:14;10.90;1.00
11559;DHT22;5835;42.930;25.178;2024-03-25T15:36:40;10.90;1.00
11559;DHT22;5835;42.930;25.178;2024-03-25T15:39:06;10.90;1.00
11559;DHT22;5835;42.930;25.178;2024-03-25T15:41:32;11.00;1.00
11559;DHT22;5835;42.930;25.178;2024-03-25T15:43:59;10.80;1.00
11559;DHT22;5835;42.930;25.178;2024-03-25T15:46:26;10.60;1.00